Pagrindinis puslapis
METAR-TAF:

METAR-TAF

Oro uostai :

Altus, Oklahoma, Jungtinės Amerikos Valstijos

platuma: 34-41-55N, ilguma: 099-20-17W, Aukštis: 437 m

Dabartinis oras

Ataskaita buvo paskelbta 24 minutes, ne 03:15 UTC
Vėjas 10 kt iš Pietų/Pietryčių
Temperatūra 17°C
Drėgmė 63%
Slėgis 1024 hPa
Matomumas: 16.1 km
Giedras dangus

METAR: KAXS 140315Z AUTO 15010KT 10SM CLR 17/10 A3023 RMK AO2 T01710095

Laikas: 22:39 (03:39 UTC)


TAF: trūkstamas

Orai ataskaitas ir orų prognozės (METAR, TAF).

turimą stotys yra geltonos ir raudonos taškus žemėlapyje.

Perkelti pele per norėdami pamatyti stoties vardą.

Tada spustelėkite, norėdami matyti oro stebėjimo ir prognozės.

Norėdami pakeisti žemėlapį: spustelėkite ant žalios mygtukų su juodo kryžiaus žemyn,; žalią mygtuką su brūkšneliu, jei norite nutolinti; arba žalių rodyklių gretimoms žemėlapius.


METAR-TAF: